Time;durP1;ratioP1;P1;durP2;ratioP2;P2;SDS_P1;SDS_P2;PMS_P1;PMS_P2;Temp;Humidity;BMP_temperature;BMP_pressure;BME280_temperature;BME280_humidity;BME280_pressure;Samples;Min_cycle;Max_cycle;Signal;HPM_P1;HPM_P2
2022/07/24 00:01:09;;;;;;;10.40;6.85;;;;;;;21.80;51.45;95999.91;5006701;28;20190;-78
2022/07/24 00:03:35;;;;;;;7.13;6.47;;;;;;;21.82;51.83;96001.34;5038266;28;20252;-77
2022/07/24 00:06:00;;;;;;;8.60;6.45;;;;;;;21.90;51.04;96001.09;5033492;28;20186;-78
2022/07/24 00:08:25;;;;;;;7.45;6.75;;;;;;;21.89;51.16;96001.28;5024088;28;20194;-78
2022/07/24 00:10:51;;;;;;;7.22;6.53;;;;;;;21.90;51.14;96005.56;5047361;28;20190;-79
2022/07/24 00:13:16;;;;;;;8.30;6.60;;;;;;;21.92;51.32;96004.34;5044684;28;20219;-80
2022/07/24 00:15:41;;;;;;;7.40;6.70;;;;;;;21.86;51.14;96004.38;5043244;28;20569;-79
2022/07/24 00:18:07;;;;;;;6.80;6.10;;;;;;;21.83;51.26;95997.66;5044965;28;20177;-79
2022/07/24 00:20:32;;;;;;;7.28;6.57;;;;;;;21.78;51.79;96000.91;5026809;28;20186;-79
2022/07/24 00:22:57;;;;;;;8.65;6.97;;;;;;;21.73;51.78;96003.38;5044295;28;20712;-79
2022/07/24 00:25:23;;;;;;;7.28;6.65;;;;;;;21.66;51.91;96007.06;5044349;28;20198;-78
2022/07/24 00:27:48;;;;;;;7.40;6.72;;;;;;;21.66;52.18;96001.75;5044070;28;20251;-79
2022/07/24 00:30:14;;;;;;;8.15;6.57;;;;;;;21.63;52.21;96000.31;5042549;28;20186;-79
2022/07/24 00:32:39;;;;;;;8.02;6.97;;;;;;;21.60;52.41;95992.81;5025418;28;20205;-79
2022/07/24 00:35:05;;;;;;;8.23;7.53;;;;;;;21.53;52.87;95996.47;5045279;28;20192;-79
2022/07/24 00:37:30;;;;;;;6.53;6.03;;;;;;;21.51;52.59;95996.69;5039361;28;20544;-79
2022/07/24 00:39:55;;;;;;;7.78;6.93;;;;;;;21.54;52.88;95996.28;5043655;28;20545;-79
2022/07/24 00:42:21;;;;;;;7.20;6.50;;;;;;;21.53;52.69;95997.28;5021674;28;20252;-79
2022/07/24 00:44:46;;;;;;;7.32;6.55;;;;;;;21.55;52.30;95995.25;5028060;28;20561;-79
2022/07/24 00:47:11;;;;;;;7.30;6.70;;;;;;;21.54;52.22;95995.47;5023629;28;20181;-79
2022/07/24 00:49:36;;;;;;;9.23;6.97;;;;;;;21.68;51.82;95987.31;5040648;28;20189;-78
2022/07/24 00:52:02;;;;;;;8.35;7.50;;;;;;;21.64;52.12;95991.38;5041799;28;20288;-79
2022/07/24 00:54:27;;;;;;;7.10;6.40;;;;;;;21.65;52.16;95995.66;5039594;28;20183;-79
2022/07/24 00:56:53;;;;;;;9.13;6.90;;;;;;;21.66;52.40;95993.84;5041861;28;20178;-79
2022/07/24 00:59:19;;;;;;;7.60;6.85;;;;;;;21.63;52.17;95986.31;5025220;28;20195;-79
2022/07/24 01:01:45;;;;;;;7.50;6.80;;;;;;;21.58;52.40;95994.03;5016433;28;20331;-79
2022/07/24 01:04:12;;;;;;;7.45;6.75;;;;;;;21.58;52.09;95986.13;5009976;28;20568;-80
2022/07/24 01:06:40;;;;;;;7.20;6.50;;;;;;;21.57;52.21;95985.31;5020752;28;20591;-79
2022/07/24 01:09:05;;;;;;;7.93;7.22;;;;;;;21.57;52.47;95981.84;5027785;28;20187;-80
2022/07/24 01:11:31;;;;;;;7.18;6.47;;;;;;;21.53;52.46;95988.56;5030307;28;20620;-81
2022/07/24 01:13:56;;;;;;;7.05;6.43;;;;;;;21.56;52.56;95980.22;5029391;28;20825;-80
2022/07/24 01:16:21;;;;;;;9.25;7.78;;;;;;;21.53;52.62;95977.97;5015812;28;20222;-80
2022/07/24 01:18:47;;;;;;;7.13;6.45;;;;;;;21.52;52.98;95982.47;5033505;28;20654;-80
2022/07/24 01:21:12;;;;;;;9.73;6.85;;;;;;;21.45;53.07;95979.81;5037944;28;20186;-80
2022/07/24 01:23:38;;;;;;;7.97;7.28;;;;;;;21.37;53.39;95979.22;5047663;28;20186;-79
2022/07/24 01:26:06;;;;;;;7.90;7.20;;;;;;;21.25;53.67;95971.06;5026552;28;20185;-79
2022/07/24 01:28:32;;;;;;;7.78;7.07;;;;;;;21.27;53.42;95981.44;5026047;28;20689;-80
2022/07/24 01:30:57;;;;;;;7.82;7.15;;;;;;;21.12;53.99;95982.44;5045744;28;20272;-79
2022/07/24 01:33:22;;;;;;;7.88;6.70;;;;;;;21.14;53.71;95969.03;5046885;28;20284;-79
2022/07/24 01:35:48;;;;;;;7.55;6.85;;;;;;;21.08;54.20;95972.47;5025313;28;20539;-78
2022/07/24 01:38:13;;;;;;;6.80;6.18;;;;;;;21.05;54.12;95978.19;5044700;28;20183;-79
2022/07/24 01:40:39;;;;;;;7.25;6.55;;;;;;;21.03;54.30;95974.94;5028440;28;20186;-79
2022/07/24 01:43:05;;;;;;;7.88;7.07;;;;;;;20.91;54.58;95979.97;5041271;28;20686;-78
2022/07/24 01:45:30;;;;;;;7.32;6.63;;;;;;;20.84;54.87;95987.88;5034983;28;20185;-79
2022/07/24 01:47:55;;;;;;;8.30;7.22;;;;;;;20.75;55.68;95980.34;5041782;28;20182;-79
2022/07/24 01:50:21;;;;;;;8.43;7.25;;;;;;;20.63;56.27;95985.41;5026328;28;20205;-80
2022/07/24 01:52:46;;;;;;;7.85;7.05;;;;;;;20.61;56.13;95982.16;5043939;28;20206;-79
2022/07/24 01:55:12;;;;;;;10.98;7.25;;;;;;;20.57;56.09;95976.47;5024777;28;20270;-79
2022/07/24 01:57:37;;;;;;;7.72;7.03;;;;;;;20.56;56.35;95981.94;5012814;28;20181;-78
2022/07/24 02:00:05;;;;;;;7.30;6.63;;;;;;;20.60;57.40;95986.63;5027044;28;20263;-79
2022/07/24 02:02:30;;;;;;;7.90;7.07;;;;;;;20.62;58.33;95981.16;5044748;28;20209;-78
2022/07/24 02:04:55;;;;;;;8.68;7.80;;;;;;;20.51;58.67;95981.75;5026215;28;20201;-79
2022/07/24 02:07:21;;;;;;;7.93;7.07;;;;;;;20.35;59.74;95981.03;5046660;28;20205;-79
2022/07/24 02:09:47;;;;;;;8.32;7.40;;;;;;;20.12;59.93;95971.81;5024602;28;20171;-79
2022/07/24 02:12:12;;;;;;;8.52;7.72;;;;;;;20.05;59.94;95980.53;5027577;28;20205;-79
2022/07/24 02:14:38;;;;;;;7.88;7.18;;;;;;;19.84;61.29;95979.81;5043024;28;20187;-79
2022/07/24 02:17:03;;;;;;;8.77;7.90;;;;;;;19.75;61.22;95974.69;5027607;28;20666;-79
2022/07/24 02:19:29;;;;;;;9.90;7.53;;;;;;;19.68;61.73;95981.72;5011653;28;20183;-79
2022/07/24 02:21:54;;;;;;;7.63;6.93;;;;;;;19.67;61.18;95976.66;5025842;28;20201;-79
2022/07/24 02:24:19;;;;;;;7.47;6.78;;;;;;;19.66;61.25;95983.75;5043981;28;20190;-78
2022/07/24 02:26:45;;;;;;;8.20;7.50;;;;;;;19.68;61.52;95988.81;5024399;28;20205;-79
2022/07/24 02:29:11;;;;;;;8.77;7.88;;;;;;;19.70;61.46;95984.16;5029712;28;20189;-80
2022/07/24 02:31:36;;;;;;;7.90;6.93;;;;;;;19.71;61.20;95977.91;5044576;28;20220;-79
2022/07/24 02:34:01;;;;;;;7.82;7.13;;;;;;;19.72;61.04;95977.72;5027648;28;20216;-79
2022/07/24 02:36:27;;;;;;;8.02;7.32;;;;;;;19.74;61.29;95980.97;5041454;28;20641;-79
2022/07/24 02:38:52;;;;;;;8.43;7.60;;;;;;;19.72;61.09;95979.53;5025938;28;20218;-79
2022/07/24 02:41:18;;;;;;;7.43;6.72;;;;;;;19.74;61.09;95988.06;5043079;28;20188;-79
2022/07/24 02:43:43;;;;;;;7.47;6.88;;;;;;;19.76;61.23;95984.22;5044243;28;20191;-78
2022/07/24 02:46:08;;;;;;;7.93;7.13;;;;;;;19.83;60.97;95986.09;5025716;28;20197;-79
2022/07/24 02:48:33;;;;;;;8.00;7.30;;;;;;;19.79;61.03;95977.75;5043538;28;20177;-78
2022/07/24 02:50:59;;;;;;;8.05;7.45;;;;;;;19.82;60.94;95982.63;5043532;28;20186;-79
2022/07/24 02:53:24;;;;;;;8.18;7.47;;;;;;;19.81;60.64;95983.66;5043176;28;20202;-79
2022/07/24 02:55:49;;;;;;;8.10;7.28;;;;;;;19.81;61.00;95991.56;5041911;28;20589;-78
2022/07/24 02:58:15;;;;;;;10.07;7.03;;;;;;;19.76;61.21;95986.03;5027151;28;20182;-78
2022/07/24 03:00:40;;;;;;;8.10;7.38;;;;;;;19.68;61.12;95980.91;5041238;28;20175;-79
2022/07/24 03:03:05;;;;;;;7.53;6.78;;;;;;;19.65;61.31;95982.13;5045976;28;20209;-79
2022/07/24 03:05:31;;;;;;;8.40;7.70;;;;;;;19.66;60.95;95983.75;5007538;28;20209;-79
2022/07/24 03:07:56;;;;;;;7.78;7.10;;;;;;;19.69;60.83;95987.81;5044201;28;20645;-79
2022/07/24 03:10:21;;;;;;;9.90;7.93;;;;;;;19.63;61.35;95978.06;5025625;28;20178;-79
2022/07/24 03:12:46;;;;;;;8.80;8.07;;;;;;;19.57;61.49;95978.81;5042691;28;20236;-79
2022/07/24 03:15:13;;;;;;;8.15;6.93;;;;;;;19.48;62.15;95981.56;5043693;28;20224;-79
2022/07/24 03:17:38;;;;;;;8.95;8.05;;;;;;;19.46;61.94;95972.25;5011219;28;20187;-79
2022/07/24 03:20:04;;;;;;;7.80;7.10;;;;;;;19.40;62.24;95983.53;5027645;28;20554;-79
2022/07/24 03:22:30;;;;;;;8.93;8.13;;;;;;;19.36;61.90;95977.84;5026781;28;20233;-78
2022/07/24 03:24:55;;;;;;;8.50;7.80;;;;;;;19.35;62.25;95973.59;5025467;28;20205;-78
2022/07/24 03:27:20;;;;;;;8.65;7.85;;;;;;;19.25;63.12;95983.63;5024659;28;20632;-80
2022/07/24 03:29:46;;;;;;;8.32;7.53;;;;;;;19.17;63.28;95981.97;5042703;28;20186;-77
2022/07/24 03:32:11;;;;;;;8.75;7.93;;;;;;;19.15;63.37;95985.78;5042340;28;20757;-78
2022/07/24 03:34:37;;;;;;;9.73;7.60;;;;;;;19.07;63.79;95983.28;5024616;28;20530;-78
2022/07/24 03:37:02;;;;;;;8.10;7.40;;;;;;;19.06;63.59;95989.53;5042125;28;20281;-79
2022/07/24 03:39:27;;;;;;;9.15;8.25;;;;;;;19.02;63.75;95988.31;5043739;28;20265;-78
2022/07/24 03:41:52;;;;;;;8.70;7.57;;;;;;;19.01;64.02;95990.13;5042389;28;20209;-78
2022/07/24 03:44:18;;;;;;;8.23;7.57;;;;;;;18.98;64.07;95985.22;5041039;28;20236;-79
2022/07/24 03:46:43;;;;;;;8.90;7.93;;;;;;;19.02;64.27;95983.03;5044484;28;20732;-79
2022/07/24 03:49:08;;;;;;;9.23;8.13;;;;;;;19.04;63.90;95988.94;5040309;28;20225;-78
2022/07/24 03:51:35;;;;;;;8.55;7.72;;;;;;;19.06;63.86;95985.09;5027167;28;20220;-78
2022/07/24 03:54:01;;;;;;;9.00;8.18;;;;;;;19.13;63.76;95985.16;5022833;28;20678;-78
2022/07/24 03:56:26;;;;;;;8.55;7.72;;;;;;;19.19;63.47;95985.22;5041386;28;20214;-79
2022/07/24 03:58:52;;;;;;;8.70;7.80;;;;;;;19.27;63.37;95986.91;5011823;28;20653;-79
2022/07/24 04:01:17;;;;;;;8.73;7.93;;;;;;;19.39;62.68;95990.63;5024979;28;20221;-78
2022/07/24 04:03:42;;;;;;;8.20;7.40;;;;;;;19.49;63.01;95988.47;5042169;28;20186;-78
2022/07/24 04:06:07;;;;;;;9.52;8.13;;;;;;;19.61;62.34;95993.22;5010090;28;20665;-78
2022/07/24 04:08:33;;;;;;;8.80;7.90;;;;;;;19.71;62.13;96002.44;5044442;28;20189;-79
2022/07/24 04:10:59;;;;;;;8.15;7.40;;;;;;;19.91;61.22;96001.75;5028515;28;20189;-79
2022/07/24 04:13:25;;;;;;;9.30;8.00;;;;;;;20.55;59.37;96004.06;5043151;28;20743;-79
2022/07/24 04:15:51;;;;;;;9.30;8.43;;;;;;;21.24;57.30;96002.97;5045030;28;20194;-79
2022/07/24 04:18:16;;;;;;;8.43;7.63;;;;;;;21.20;56.90;96000.75;5039447;28;20280;-79
2022/07/24 04:20:41;;;;;;;8.85;8.05;;;;;;;21.22;56.81;96003.19;5026732;28;20227;-79
2022/07/24 04:23:07;;;;;;;8.52;7.72;;;;;;;21.15;57.76;96003.16;5027657;28;20758;-79
2022/07/24 04:25:34;;;;;;;8.45;7.68;;;;;;;21.10;57.94;96002.94;5045963;28;20236;-80
2022/07/24 04:27:59;;;;;;;9.55;7.80;;;;;;;21.11;57.38;96009.84;5045117;28;20182;-80
2022/07/24 04:30:25;;;;;;;9.88;8.85;;;;;;;21.30;57.94;96013.56;5041242;28;20181;-79
2022/07/24 04:32:50;;;;;;;8.48;7.72;;;;;;;21.40;57.41;96006.06;5041219;28;20636;-80
2022/07/24 04:35:15;;;;;;;8.88;7.75;;;;;;;21.37;58.16;96016.19;5041441;28;20213;-79
2022/07/24 04:37:40;;;;;;;8.52;7.65;;;;;;;21.43;57.56;96004.81;5046920;28;20178;-79
2022/07/24 04:40:06;;;;;;;9.10;8.20;;;;;;;21.41;58.57;96002.38;5011113;28;20182;-79
2022/07/24 04:42:32;;;;;;;8.75;7.70;;;;;;;21.77;57.38;96003.78;5030171;28;20255;-79
2022/07/24 04:44:57;;;;;;;10.82;7.75;;;;;;;23.39;52.58;96010.56;5026630;28;20196;-80
2022/07/24 04:47:22;;;;;;;8.18;7.35;;;;;;;24.89;47.17;96012.84;5049246;28;20690;-80
2022/07/24 04:49:47;;;;;;;8.20;7.40;;;;;;;25.94;44.56;96019.19;5045703;28;20665;-80
2022/07/24 04:52:13;;;;;;;8.02;7.32;;;;;;;27.03;42.11;96019.31;5029401;28;20209;-80
2022/07/24 04:54:38;;;;;;;7.05;6.45;;;;;;;27.96;39.39;96026.94;5043505;28;20183;-80
2022/07/24 04:57:03;;;;;;;7.70;6.82;;;;;;;27.31;38.48;96026.44;5047810;28;20240;-80
2022/07/24 04:59:29;;;;;;;7.82;7.03;;;;;;;28.61;37.44;96032.34;5026407;28;20182;-80
2022/07/24 05:01:54;;;;;;;7.63;7.00;;;;;;;28.64;36.16;96036.41;5029916;28;20576;-79
2022/07/24 05:04:19;;;;;;;7.50;6.78;;;;;;;28.58;35.58;96029.38;5026700;28;20194;-80
2022/07/24 05:06:46;;;;;;;6.82;6.13;;;;;;;29.88;33.89;96032.81;5045007;28;20927;-80
2022/07/24 05:09:11;;;;;;;8.55;7.60;;;;;;;29.13;34.81;96039.09;5046209;28;20193;-80
2022/07/24 05:11:36;;;;;;;7.43;6.78;;;;;;;28.82;35.06;96044.09;5045229;28;20202;-80
2022/07/24 05:14:02;;;;;;;7.15;6.60;;;;;;;29.21;35.07;96042.13;5045247;28;20203;-80
2022/07/24 05:16:27;;;;;;;7.53;6.57;;;;;;;29.77;34.29;96036.44;5046339;28;20612;-80
2022/07/24 05:18:52;;;;;;;7.68;6.93;;;;;;;29.71;33.58;96042.84;5047955;28;20209;-79
2022/07/24 05:21:18;;;;;;;7.57;6.88;;;;;;;30.66;33.27;96033.00;5012036;28;20776;-80
2022/07/24 05:23:43;;;;;;;8.18;7.38;;;;;;;30.69;32.18;96029.78;5044470;28;20213;-80
2022/07/24 05:26:09;;;;;;;7.97;7.28;;;;;;;29.19;34.97;96035.41;5061793;28;20189;-80
2022/07/24 05:28:34;;;;;;;8.13;7.38;;;;;;;28.18;35.93;96027.75;5069515;28;20174;-80
2022/07/24 05:30:59;;;;;;;8.40;7.28;;;;;;;28.77;35.52;96033.34;5054085;28;20208;-80
2022/07/24 05:33:24;;;;;;;7.72;7.03;;;;;;;29.67;35.00;96033.69;5068397;28;20210;-80
2022/07/24 05:35:50;;;;;;;7.43;6.75;;;;;;;29.59;35.16;96034.97;5061869;28;20734;-80
2022/07/24 05:38:16;;;;;;;7.85;7.07;;;;;;;30.10;33.61;96033.50;5009491;28;20198;-80
2022/07/24 05:40:41;;;;;;;7.85;7.15;;;;;;;30.74;32.97;96032.47;5029009;28;20264;-80
2022/07/24 05:43:06;;;;;;;7.93;7.22;;;;;;;31.20;31.39;96035.28;5027123;28;20236;-80
2022/07/24 05:45:32;;;;;;;7.97;7.28;;;;;;;30.58;32.47;96031.59;5043202;28;20189;-80
2022/07/24 05:47:57;;;;;;;7.03;6.43;;;;;;;32.92;28.96;96038.81;5044637;28;20180;-80
2022/07/24 05:50:22;;;;;;;8.32;7.32;;;;;;;31.50;30.20;96039.88;5043728;28;20585;-80
2022/07/24 05:52:48;;;;;;;7.75;7.05;;;;;;;29.74;32.49;96028.94;5028439;28;20209;-80
2022/07/24 05:55:13;;;;;;;7.65;6.90;;;;;;;29.26;33.18;96033.34;5024364;28;20217;-80
2022/07/24 05:57:38;;;;;;;8.88;7.75;;;;;;;31.06;32.05;96040.34;5028750;28;20218;-80
2022/07/24 06:00:04;;;;;;;8.18;7.38;;;;;;;31.32;31.36;96035.84;5028485;28;20268;-80
2022/07/24 06:02:29;;;;;;;10.60;6.95;;;;;;;31.55;31.17;96039.91;5024794;28;20580;-80
2022/07/24 06:04:55;;;;;;;7.90;7.15;;;;;;;31.09;31.42;96039.00;5044497;28;20236;-80
2022/07/24 06:07:20;;;;;;;7.75;7.00;;;;;;;31.01;31.09;96032.31;5026677;28;20751;-80
2022/07/24 06:09:45;;;;;;;7.85;7.05;;;;;;;31.90;29.73;96038.31;5043966;28;20177;-81
2022/07/24 06:12:11;;;;;;;7.85;7.10;;;;;;;31.82;29.90;96039.66;5046021;28;20288;-80
2022/07/24 06:14:36;;;;;;;8.10;7.18;;;;;;;32.66;29.18;96043.47;5028264;28;20642;-80
2022/07/24 06:17:01;;;;;;;8.52;7.72;;;;;;;32.57;29.24;96039.75;5030263;28;20225;-81
2022/07/24 06:19:27;;;;;;;8.45;7.70;;;;;;;31.28;30.42;96038.28;5048487;28;20182;-82
2022/07/24 06:21:52;;;;;;;8.07;7.38;;;;;;;30.50;31.74;96037.47;5033658;28;20627;-80
2022/07/24 06:24:18;;;;;;;8.10;7.50;;;;;;;29.81;33.09;96027.66;5026130;28;20206;-81
2022/07/24 06:26:43;;;;;;;8.45;7.60;;;;;;;28.86;34.48;96034.50;5043551;28;20268;-81
2022/07/24 06:29:08;;;;;;;9.15;8.23;;;;;;;27.97;36.12;96032.03;5031194;28;20198;-81
2022/07/24 06:31:34;;;;;;;8.55;7.68;;;;;;;28.99;34.75;96036.03;5044285;28;20669;-81
2022/07/24 06:33:59;;;;;;;8.02;7.30;;;;;;;29.12;34.11;96029.47;5042866;28;20206;-81
2022/07/24 06:36:24;;;;;;;8.05;7.47;;;;;;;29.85;33.08;96034.09;5044081;28;20174;-81
2022/07/24 06:38:50;;;;;;;8.10;7.35;;;;;;;30.72;31.94;96032.72;5043394;28;20186;-81
2022/07/24 06:41:15;;;;;;;8.65;7.38;;;;;;;31.12;31.46;96031.25;5042419;28;20198;-81
2022/07/24 06:43:41;;;;;;;8.43;7.72;;;;;;;31.97;30.37;96028.88;5044574;28;20224;-80
2022/07/24 06:46:06;;;;;;;7.85;7.25;;;;;;;33.21;28.63;96028.94;5024111;28;20214;-81
2022/07/24 06:48:31;;;;;;;8.50;7.30;;;;;;;33.32;27.84;96040.47;5027992;28;20213;-80
2022/07/24 06:50:57;;;;;;;7.95;7.15;;;;;;;34.22;26.72;96031.13;5042648;28;20186;-81
2022/07/24 06:53:22;;;;;;;8.10;7.40;;;;;;;34.05;26.53;96043.13;5045644;28;20686;-80
2022/07/24 06:55:47;;;;;;;8.15;7.43;;;;;;;33.52;25.85;96040.34;5025946;28;20181;-80
2022/07/24 06:58:13;;;;;;;8.32;7.63;;;;;;;34.08;25.45;96047.13;5045351;28;20213;-80
2022/07/24 07:00:42;;;;;;;8.05;7.25;;;;;;;33.88;25.99;96040.06;5024449;28;20193;-80
2022/07/24 07:03:07;;;;;;;8.27;7.43;;;;;;;32.59;26.71;96037.59;5044250;28;20206;-80
2022/07/24 07:05:32;;;;;;;9.70;8.70;;;;;;;32.68;26.87;96025.97;5043165;28;20557;-80
2022/07/24 07:07:58;;;;;;;8.60;7.90;;;;;;;32.97;26.39;96039.59;5027482;28;20179;-81
2022/07/24 07:10:23;;;;;;;8.35;7.65;;;;;;;33.52;25.51;96047.63;5044795;28;20196;-80
2022/07/24 07:12:49;;;;;;;9.82;8.35;;;;;;;30.53;28.29;96034.25;5043345;28;20576;-81
2022/07/24 07:15:14;;;;;;;8.63;7.72;;;;;;;30.13;30.17;96037.53;5023757;28;20191;-80
2022/07/24 07:17:40;;;;;;;10.60;8.55;;;;;;;29.05;31.37;96038.47;5047997;28;20178;-81
2022/07/24 07:20:08;;;;;;;9.25;7.85;;;;;;;29.58;31.15;96039.53;5009549;28;20255;-79
2022/07/24 07:22:33;;;;;;;10.20;8.13;;;;;;;30.52;29.61;96045.22;5042988;28;20202;-79
2022/07/24 07:24:58;;;;;;;8.80;7.97;;;;;;;31.75;28.12;96039.09;5042953;28;20192;-79
2022/07/24 07:27:23;;;;;;;8.32;7.63;;;;;;;31.70;30.46;96047.94;5043580;28;20186;-79
2022/07/24 07:29:49;;;;;;;7.95;7.35;;;;;;;31.19;31.72;96041.72;5042968;28;20228;-79
2022/07/24 07:32:14;;;;;;;9.10;8.30;;;;;;;31.88;30.59;96051.19;5027416;28;20227;-80
2022/07/24 07:34:39;;;;;;;8.65;7.85;;;;;;;31.70;30.91;96041.75;5041454;28;20593;-80
2022/07/24 07:37:05;;;;;;;8.65;7.85;;;;;;;32.10;30.41;96044.44;5028129;28;20662;-79
2022/07/24 07:39:30;;;;;;;9.27;8.38;;;;;;;31.96;30.82;96045.25;5044211;28;20192;-77
2022/07/24 07:41:55;;;;;;;8.85;8.15;;;;;;;31.88;30.93;96053.88;5044217;28;20207;-78
2022/07/24 07:44:20;;;;;;;8.82;8.13;;;;;;;31.38;30.90;96044.72;5024686;28;20526;-81
2022/07/24 07:46:46;;;;;;;9.63;8.73;;;;;;;30.70;31.26;96040.25;5047166;28;20224;-80
2022/07/24 07:49:11;;;;;;;8.55;7.72;;;;;;;31.55;30.83;96045.28;5024939;28;20189;-79
2022/07/24 07:51:37;;;;;;;9.10;8.18;;;;;;;31.05;31.38;96043.28;5010706;28;20216;-80
2022/07/24 07:54:02;;;;;;;8.73;7.93;;;;;;;30.42;31.98;96046.00;5031993;28;20756;-80
2022/07/24 07:56:30;;;;;;;8.98;8.15;;;;;;;31.46;29.66;96042.31;5028830;28;20209;-80
2022/07/24 07:58:55;;;;;;;9.10;8.15;;;;;;;31.46;29.51;96047.69;5026913;28;20193;-80
2022/07/24 08:01:21;;;;;;;8.57;7.88;;;;;;;31.90;29.33;96047.16;5042614;28;20182;-80
2022/07/24 08:03:46;;;;;;;8.00;7.40;;;;;;;31.91;27.73;96051.47;5042129;28;20190;-79
2022/07/24 08:06:12;;;;;;;8.40;7.57;;;;;;;31.75;28.15;96041.78;5053603;28;20187;-79
2022/07/24 08:08:38;;;;;;;7.88;7.18;;;;;;;31.25;30.04;96049.53;5060545;28;20193;-78
2022/07/24 08:11:03;;;;;;;8.85;8.13;;;;;;;31.24;28.85;96042.53;5062623;28;20177;-83
2022/07/24 08:13:28;;;;;;;8.82;8.02;;;;;;;31.29;29.55;96031.03;5019282;28;20213;-80
2022/07/24 08:15:54;;;;;;;11.15;8.30;;;;;;;30.88;30.70;96038.97;5051628;28;20225;-80
2022/07/24 08:18:19;;;;;;;8.68;7.78;;;;;;;29.84;32.20;96034.38;5055919;28;20191;-84
2022/07/24 08:20:44;;;;;;;8.32;7.53;;;;;;;30.37;30.70;96037.91;5071631;28;20184;-83
2022/07/24 08:23:10;;;;;;;7.90;7.10;;;;;;;29.95;31.28;96032.56;5044935;28;20244;-83
2022/07/24 08:25:35;;;;;;;8.25;7.55;;;;;;;29.94;31.03;96031.75;5064363;28;20201;-82
2022/07/24 08:28:00;;;;;;;8.88;8.07;;;;;;;29.76;32.82;96022.25;5042657;28;20188;-84
2022/07/24 08:30:26;;;;;;;8.50;7.70;;;;;;;30.11;31.35;96032.41;5033895;28;20208;-83
2022/07/24 08:32:52;;;;;;;8.98;8.07;;;;;;;29.81;31.21;96022.31;5028996;28;20231;-84
2022/07/24 08:35:17;;;;;;;10.52;8.07;;;;;;;29.49;32.76;96032.22;5060982;28;20268;-79
2022/07/24 08:37:42;;;;;;;8.32;7.63;;;;;;;29.15;33.20;96034.28;5044655;28;20219;-82
2022/07/24 08:40:10;;;;;;;8.68;7.88;;;;;;;29.14;32.96;96030.00;5052839;28;20213;-82
2022/07/24 08:42:36;;;;;;;10.13;7.88;;;;;;;27.97;35.47;96034.69;5035069;28;20291;-82
2022/07/24 08:45:01;;;;;;;8.98;8.07;;;;;;;28.09;35.52;96027.38;5035429;28;20526;-81
2022/07/24 08:47:28;;;;;;;8.85;8.05;;;;;;;27.76;36.63;96025.59;5037048;28;20272;-82
2022/07/24 08:49:54;;;;;;;8.77;7.97;;;;;;;28.03;35.77;96027.56;5029556;28;20178;-81
2022/07/24 08:52:21;;;;;;;8.88;7.10;;;;;;;28.49;35.01;96029.81;5061181;28;20216;-79
2022/07/24 08:54:47;;;;;;;8.82;7.68;;;;;;;28.02;35.64;96025.97;5043864;28;20193;-82
2022/07/24 08:57:12;;;;;;;9.88;7.32;;;;;;;28.56;34.52;96031.50;5026268;28;20549;-82
2022/07/24 08:59:37;;;;;;;8.00;7.22;;;;;;;28.66;34.42;96028.94;5048706;28;20279;-82
2022/07/24 09:02:03;;;;;;;8.20;7.40;;;;;;;27.32;37.12;96030.72;5061565;28;20236;-81
2022/07/24 09:04:37;;;;;;;7.75;7.03;;;;;;;27.58;35.59;96033.81;5043506;28;20237;-81
2022/07/24 09:07:09;;;;;;;8.05;7.25;;;;;;;28.10;33.63;96034.38;5060308;28;20579;-82
2022/07/24 09:09:35;;;;;;;7.75;6.95;;;;;;;27.97;34.97;96023.22;5052709;28;20201;-82
2022/07/24 09:12:04;;;;;;;7.53;6.82;;;;;;;28.34;33.22;96032.28;5052390;28;20699;-79
2022/07/24 09:14:37;;;;;;;7.68;7.03;;;;;;;28.20;34.26;96033.69;5041828;28;20571;-79
2022/07/24 09:17:11;;;;;;;7.50;6.68;;;;;;;28.82;33.19;96035.28;5027861;28;20188;-80
2022/07/24 09:19:57;;;;;;;8.13;7.43;;;;;;;27.74;33.97;96041.03;5045871;28;20549;-80
2022/07/24 09:22:24;;;;;;;7.82;7.13;;;;;;;28.02;34.10;96039.31;5029408;28;20197;-80
2022/07/24 09:25:06;;;;;;;7.45;6.72;;;;;;;27.71;34.68;96032.69;5047571;28;20295;-80
2022/07/24 09:27:32;;;;;;;8.07;7.28;;;;;;;27.81;35.53;96035.53;5066019;28;20195;-80
2022/07/24 09:29:57;;;;;;;8.48;7.68;;;;;;;27.53;35.16;96039.88;5061115;28;20168;-80
2022/07/24 09:32:23;;;;;;;7.50;6.90;;;;;;;27.41;35.39;96030.34;5044126;28;20580;-80
2022/07/24 09:34:51;;;;;;;8.90;7.85;;;;;;;27.70;35.56;96034.56;5051000;28;20536;-80
2022/07/24 09:37:16;;;;;;;8.27;7.47;;;;;;;27.99;35.22;96034.44;5049334;28;20193;-80
2022/07/24 09:39:42;;;;;;;8.23;7.25;;;;;;;28.69;34.08;96029.25;5053961;28;20696;-80
2022/07/24 09:42:07;;;;;;;7.93;7.22;;;;;;;28.81;34.08;96028.31;5066711;28;20201;-80
2022/07/24 09:44:34;;;;;;;8.43;7.72;;;;;;;29.21;33.94;96025.25;5061642;28;20528;-80
2022/07/24 09:47:07;;;;;;;8.82;7.53;;;;;;;28.99;33.98;96020.00;5056185;28;20177;-80
2022/07/24 09:49:33;;;;;;;8.05;7.30;;;;;;;28.72;33.70;96026.09;5065718;28;20197;-80
2022/07/24 09:52:05;;;;;;;7.40;6.80;;;;;;;29.32;33.23;96026.97;5063471;28;20209;-80
2022/07/24 09:54:35;;;;;;;8.50;7.53;;;;;;;28.57;34.97;96023.22;5062115;28;20190;-80
2022/07/24 09:57:25;;;;;;;7.93;7.15;;;;;;;28.70;34.97;96024.69;5067718;28;20778;-80
2022/07/24 09:59:54;;;;;;;8.15;7.20;;;;;;;28.73;34.19;96027.69;5058307;28;20274;-80
2022/07/24 10:02:22;;;;;;;8.80;8.00;;;;;;;29.02;33.75;96019.47;5031337;28;20210;-80
2022/07/24 10:04:49;;;;;;;8.48;7.70;;;;;;;29.13;32.47;96025.72;5045650;28;20288;-80
2022/07/24 10:07:18;;;;;;;8.90;7.55;;;;;;;28.63;33.74;96016.91;5050670;28;20569;-80
2022/07/24 10:09:45;;;;;;;7.60;7.00;;;;;;;29.48;33.83;96020.69;5047265;28;20177;-79
2022/07/24 10:12:22;;;;;;;8.23;7.43;;;;;;;29.70;33.57;96014.47;5066236;28;20280;-80
2022/07/24 10:14:51;;;;;;;7.53;6.88;;;;;;;29.45;32.03;96013.19;5055443;28;20192;-80
2022/07/24 10:17:17;;;;;;;8.43;7.40;;;;;;;29.43;33.27;96017.97;5014549;28;20190;-80
2022/07/24 10:19:48;;;;;;;8.85;7.70;;;;;;;29.86;32.99;96019.69;5067255;28;20184;-79
2022/07/24 10:22:19;;;;;;;8.23;7.43;;;;;;;29.91;31.67;96016.22;5062898;28;20228;-79
2022/07/24 10:24:54;;;;;;;7.70;6.90;;;;;;;30.00;32.01;96017.34;5052620;28;20189;-80
2022/07/24 10:27:31;;;;;;;8.10;7.40;;;;;;;29.97;31.69;96009.84;5054591;28;20283;-79
2022/07/24 10:30:08;;;;;;;7.97;7.28;;;;;;;30.17;30.74;96015.31;5052962;28;20181;-79
2022/07/24 10:32:35;;;;;;;8.57;7.00;;;;;;;29.66;31.33;96000.78;5033447;28;20209;-80
2022/07/24 10:35:20;;;;;;;8.18;7.38;;;;;;;29.33;32.34;96009.84;5028201;28;20173;-80
2022/07/24 10:38:00;;;;;;;8.15;7.43;;;;;;;29.54;31.87;96010.88;5056978;28;20609;-80
2022/07/24 10:40:33;;;;;;;7.70;7.05;;;;;;;29.27;32.41;96010.88;5052380;28;20243;-80
2022/07/24 10:43:05;;;;;;;8.65;7.88;;;;;;;29.37;32.23;96000.28;5055367;28;20197;-80
2022/07/24 10:45:33;;;;;;;8.48;7.68;;;;;;;28.65;33.63;96008.63;5062537;28;20177;-79
2022/07/24 10:48:22;;;;;;;8.32;7.57;;;;;;;28.98;33.34;96011.16;5063560;28;20719;-80
2022/07/24 10:51:07;;;;;;;8.82;7.85;;;;;;;28.43;34.16;96004.09;5061529;28;20741;-80
2022/07/24 10:53:38;;;;;;;8.55;7.35;;;;;;;28.84;33.76;96004.56;5055475;28;20215;-80
2022/07/24 10:56:17;;;;;;;8.38;7.22;;;;;;;28.57;33.99;96003.72;5062489;28;20197;-79
2022/07/24 10:58:52;;;;;;;8.35;7.65;;;;;;;28.17;34.93;96007.47;5042043;28;20209;-80
2022/07/24 11:01:31;;;;;;;8.20;7.53;;;;;;;28.19;34.31;96000.03;5046277;28;20254;-79
2022/07/24 11:03:58;;;;;;;8.45;7.65;;;;;;;28.72;34.53;96001.22;5062366;28;20177;-80
2022/07/24 11:06:46;;;;;;;8.05;7.32;;;;;;;28.94;33.83;95996.66;5049414;28;20189;-80
2022/07/24 11:09:11;;;;;;;8.68;7.78;;;;;;;28.69;34.19;95999.84;5046551;28;20640;-79
2022/07/24 11:11:42;;;;;;;8.50;7.70;;;;;;;28.95;33.52;96000.16;5044972;28;20209;-80
2022/07/24 11:14:08;;;;;;;8.38;7.63;;;;;;;29.09;33.32;95997.88;5053885;28;20205;-80
2022/07/24 11:16:34;;;;;;;8.23;7.30;;;;;;;28.87;33.72;95998.69;5028960;28;20205;-80
2022/07/24 11:18:59;;;;;;;8.95;8.05;;;;;;;28.73;33.83;95995.63;5064477;28;20323;-80
2022/07/24 11:21:31;;;;;;;8.82;8.02;;;;;;;28.21;34.51;96000.59;5064252;28;20263;-80
2022/07/24 11:24:19;;;;;;;8.45;7.65;;;;;;;28.15;35.21;95997.03;5065865;28;20259;-80
2022/07/24 11:26:52;;;;;;;8.73;7.93;;;;;;;29.10;33.72;95997.63;5050102;28;20190;-80
2022/07/24 11:29:18;;;;;;;8.13;7.43;;;;;;;29.55;32.66;95986.53;5050381;28;20239;-80
2022/07/24 11:31:46;;;;;;;8.55;7.75;;;;;;;29.52;32.31;95973.66;5050032;28;20201;-80